sensor_id;sensor_type;location;lat;lon;timestamp;P1;durP1;ratioP1;P2;durP2;ratioP2
52494;SDS011;38405;53.212;5.660;2023-08-20T00:00:55;9.63;;;3.83;;
52494;SDS011;38405;53.212;5.660;2023-08-20T00:03:21;14.63;;;3.75;;
52494;SDS011;38405;53.212;5.660;2023-08-20T00:05:48;12.07;;;4.13;;
52494;SDS011;38405;53.212;5.660;2023-08-20T00:08:14;12.25;;;4.00;;
52494;SDS011;38405;53.212;5.660;2023-08-20T00:10:39;14.25;;;3.97;;
52494;SDS011;38405;53.212;5.660;2023-08-20T00:13:05;11.13;;;3.63;;
52494;SDS011;38405;53.212;5.660;2023-08-20T00:15:31;15.52;;;4.18;;
52494;SDS011;38405;53.212;5.660;2023-08-20T00:17:57;11.68;;;4.03;;
52494;SDS011;38405;53.212;5.660;2023-08-20T00:20:23;8.65;;;3.95;;
52494;SDS011;38405;53.212;5.660;2023-08-20T00:22:49;8.90;;;3.58;;
52494;SDS011;38405;53.212;5.660;2023-08-20T00:25:16;11.00;;;3.85;;
52494;SDS011;38405;53.212;5.660;2023-08-20T00:27:42;7.30;;;3.92;;
52494;SDS011;38405;53.212;5.660;2023-08-20T00:30:08;12.88;;;4.47;;
52494;SDS011;38405;53.212;5.660;2023-08-20T00:32:35;10.73;;;3.80;;
52494;SDS011;38405;53.212;5.660;2023-08-20T00:35:02;11.90;;;3.88;;
52494;SDS011;38405;53.212;5.660;2023-08-20T00:37:28;12.02;;;4.47;;
52494;SDS011;38405;53.212;5.660;2023-08-20T00:39:54;21.17;;;4.18;;
52494;SDS011;38405;53.212;5.660;2023-08-20T00:42:20;15.70;;;4.68;;
52494;SDS011;38405;53.212;5.660;2023-08-20T00:44:45;14.57;;;4.55;;
52494;SDS011;38405;53.212;5.660;2023-08-20T00:47:12;15.45;;;4.63;;
52494;SDS011;38405;53.212;5.660;2023-08-20T00:49:38;8.27;;;4.22;;
52494;SDS011;38405;53.212;5.660;2023-08-20T00:52:05;13.05;;;4.47;;
52494;SDS011;38405;53.212;5.660;2023-08-20T00:54:33;10.98;;;4.25;;
52494;SDS011;38405;53.212;5.660;2023-08-20T00:56:59;13.95;;;4.45;;
52494;SDS011;38405;53.212;5.660;2023-08-20T00:59:26;11.05;;;4.28;;
52494;SDS011;38405;53.212;5.660;2023-08-20T01:01:52;13.38;;;4.72;;
52494;SDS011;38405;53.212;5.660;2023-08-20T01:04:18;15.48;;;4.40;;
52494;SDS011;38405;53.212;5.660;2023-08-20T01:12:04;16.70;;;4.55;;
52494;SDS011;38405;53.212;5.660;2023-08-20T01:14:31;13.40;;;4.72;;
52494;SDS011;38405;53.212;5.660;2023-08-20T01:16:57;11.85;;;5.00;;
52494;SDS011;38405;53.212;5.660;2023-08-20T01:19:23;7.82;;;4.22;;
52494;SDS011;38405;53.212;5.660;2023-08-20T01:27:10;14.00;;;5.10;;
52494;SDS011;38405;53.212;5.660;2023-08-20T01:29:39;13.65;;;4.45;;
52494;SDS011;38405;53.212;5.660;2023-08-20T01:32:06;14.80;;;5.00;;
52494;SDS011;38405;53.212;5.660;2023-08-20T01:34:33;13.82;;;4.80;;
52494;SDS011;38405;53.212;5.660;2023-08-20T01:36:58;10.65;;;4.88;;
52494;SDS011;38405;53.212;5.660;2023-08-20T01:39:24;17.50;;;4.82;;
52494;SDS011;38405;53.212;5.660;2023-08-20T01:41:50;14.18;;;5.25;;
52494;SDS011;38405;53.212;5.660;2023-08-20T01:44:15;13.75;;;4.72;;
52494;SDS011;38405;53.212;5.660;2023-08-20T01:46:41;16.02;;;5.00;;
52494;SDS011;38405;53.212;5.660;2023-08-20T01:49:07;17.98;;;5.30;;
52494;SDS011;38405;53.212;5.660;2023-08-20T01:51:32;15.55;;;4.45;;
52494;SDS011;38405;53.212;5.660;2023-08-20T01:53:58;14.00;;;5.30;;
52494;SDS011;38405;53.212;5.660;2023-08-20T01:56:24;10.55;;;4.97;;
52494;SDS011;38405;53.212;5.660;2023-08-20T01:58:49;12.73;;;4.85;;
52494;SDS011;38405;53.212;5.660;2023-08-20T02:01:15;16.13;;;4.55;;
52494;SDS011;38405;53.212;5.660;2023-08-20T02:03:41;12.85;;;4.50;;
52494;SDS011;38405;53.212;5.660;2023-08-20T02:06:06;10.05;;;4.30;;
52494;SDS011;38405;53.212;5.660;2023-08-20T02:08:32;12.18;;;4.68;;
52494;SDS011;38405;53.212;5.660;2023-08-20T02:11:03;9.85;;;4.63;;
52494;SDS011;38405;53.212;5.660;2023-08-20T02:13:30;14.10;;;5.40;;
52494;SDS011;38405;53.212;5.660;2023-08-20T02:16:00;14.02;;;5.15;;
52494;SDS011;38405;53.212;5.660;2023-08-20T02:18:29;18.23;;;5.45;;
52494;SDS011;38405;53.212;5.660;2023-08-20T02:20:55;13.10;;;4.72;;
52494;SDS011;38405;53.212;5.660;2023-08-20T02:23:21;16.15;;;4.80;;
52494;SDS011;38405;53.212;5.660;2023-08-20T02:25:47;21.77;;;5.05;;
52494;SDS011;38405;53.212;5.660;2023-08-20T02:28:13;12.43;;;4.60;;
52494;SDS011;38405;53.212;5.660;2023-08-20T02:30:43;13.00;;;5.40;;
52494;SDS011;38405;53.212;5.660;2023-08-20T02:33:10;13.23;;;4.68;;
52494;SDS011;38405;53.212;5.660;2023-08-20T02:35:36;15.23;;;4.82;;
52494;SDS011;38405;53.212;5.660;2023-08-20T02:38:02;21.42;;;5.22;;
52494;SDS011;38405;53.212;5.660;2023-08-20T02:40:28;16.98;;;5.50;;
52494;SDS011;38405;53.212;5.660;2023-08-20T02:42:56;15.68;;;4.65;;
52494;SDS011;38405;53.212;5.660;2023-08-20T02:45:22;11.27;;;4.88;;
52494;SDS011;38405;53.212;5.660;2023-08-20T02:47:48;13.32;;;4.40;;
52494;SDS011;38405;53.212;5.660;2023-08-20T02:50:17;10.57;;;4.20;;
52494;SDS011;38405;53.212;5.660;2023-08-20T02:52:42;7.35;;;4.03;;
52494;SDS011;38405;53.212;5.660;2023-08-20T02:55:09;12.77;;;4.10;;
52494;SDS011;38405;53.212;5.660;2023-08-20T02:57:34;13.18;;;4.43;;
52494;SDS011;38405;53.212;5.660;2023-08-20T03:00:00;7.72;;;4.38;;
52494;SDS011;38405;53.212;5.660;2023-08-20T03:02:26;9.38;;;4.32;;
52494;SDS011;38405;53.212;5.660;2023-08-20T03:04:51;10.65;;;4.32;;
52494;SDS011;38405;53.212;5.660;2023-08-20T03:07:18;9.35;;;4.65;;
52494;SDS011;38405;53.212;5.660;2023-08-20T03:09:43;9.50;;;4.45;;
52494;SDS011;38405;53.212;5.660;2023-08-20T03:12:09;11.25;;;4.63;;
52494;SDS011;38405;53.212;5.660;2023-08-20T03:14:35;9.10;;;4.32;;
52494;SDS011;38405;53.212;5.660;2023-08-20T03:17:00;8.95;;;4.53;;
52494;SDS011;38405;53.212;5.660;2023-08-20T03:19:29;16.85;;;4.68;;
52494;SDS011;38405;53.212;5.660;2023-08-20T03:21:58;13.80;;;4.95;;
52494;SDS011;38405;53.212;5.660;2023-08-20T03:24:23;8.88;;;4.18;;
52494;SDS011;38405;53.212;5.660;2023-08-20T03:26:49;11.45;;;4.65;;
52494;SDS011;38405;53.212;5.660;2023-08-20T03:29:15;16.55;;;5.07;;
52494;SDS011;38405;53.212;5.660;2023-08-20T03:31:40;11.88;;;5.00;;
52494;SDS011;38405;53.212;5.660;2023-08-20T03:34:06;11.38;;;4.90;;
52494;SDS011;38405;53.212;5.660;2023-08-20T03:36:33;10.57;;;5.32;;
52494;SDS011;38405;53.212;5.660;2023-08-20T03:38:59;15.73;;;5.35;;
52494;SDS011;38405;53.212;5.660;2023-08-20T03:41:25;15.10;;;5.68;;
52494;SDS011;38405;53.212;5.660;2023-08-20T03:43:50;12.77;;;5.38;;
52494;SDS011;38405;53.212;5.660;2023-08-20T03:46:16;20.38;;;5.68;;
52494;SDS011;38405;53.212;5.660;2023-08-20T03:48:42;14.45;;;5.80;;
52494;SDS011;38405;53.212;5.660;2023-08-20T03:51:07;10.43;;;5.05;;
52494;SDS011;38405;53.212;5.660;2023-08-20T03:53:33;12.70;;;5.85;;
52494;SDS011;38405;53.212;5.660;2023-08-20T03:55:59;19.75;;;5.30;;
52494;SDS011;38405;53.212;5.660;2023-08-20T03:58:24;15.68;;;5.68;;
52494;SDS011;38405;53.212;5.660;2023-08-20T04:00:50;17.08;;;6.28;;
52494;SDS011;38405;53.212;5.660;2023-08-20T04:03:16;18.38;;;6.18;;
52494;SDS011;38405;53.212;5.660;2023-08-20T04:05:44;20.52;;;5.97;;
52494;SDS011;38405;53.212;5.660;2023-08-20T04:08:10;14.77;;;5.35;;
52494;SDS011;38405;53.212;5.660;2023-08-20T04:10:37;12.57;;;5.75;;
52494;SDS011;38405;53.212;5.660;2023-08-20T04:13:09;15.07;;;6.40;;
52494;SDS011;38405;53.212;5.660;2023-08-20T04:15:34;15.98;;;5.38;;
52494;SDS011;38405;53.212;5.660;2023-08-20T04:18:00;16.52;;;5.05;;
52494;SDS011;38405;53.212;5.660;2023-08-20T04:20:25;10.85;;;5.60;;
52494;SDS011;38405;53.212;5.660;2023-08-20T04:22:51;18.65;;;5.57;;
52494;SDS011;38405;53.212;5.660;2023-08-20T04:25:17;11.82;;;4.78;;
52494;SDS011;38405;53.212;5.660;2023-08-20T04:27:43;11.07;;;5.28;;
52494;SDS011;38405;53.212;5.660;2023-08-20T04:30:08;17.50;;;5.82;;
52494;SDS011;38405;53.212;5.660;2023-08-20T04:32:35;12.40;;;5.68;;
52494;SDS011;38405;53.212;5.660;2023-08-20T04:35:00;11.77;;;5.35;;
52494;SDS011;38405;53.212;5.660;2023-08-20T04:37:26;12.02;;;5.18;;
52494;SDS011;38405;53.212;5.660;2023-08-20T04:39:52;14.35;;;5.30;;
52494;SDS011;38405;53.212;5.660;2023-08-20T04:42:17;14.25;;;5.60;;
52494;SDS011;38405;53.212;5.660;2023-08-20T04:44:43;11.70;;;4.65;;
52494;SDS011;38405;53.212;5.660;2023-08-20T04:47:12;8.48;;;4.13;;
52494;SDS011;38405;53.212;5.660;2023-08-20T04:49:38;8.25;;;4.65;;
52494;SDS011;38405;53.212;5.660;2023-08-20T04:52:04;13.20;;;5.05;;
52494;SDS011;38405;53.212;5.660;2023-08-20T04:54:29;9.57;;;4.88;;
52494;SDS011;38405;53.212;5.660;2023-08-20T04:56:55;15.05;;;5.55;;
52494;SDS011;38405;53.212;5.660;2023-08-20T04:59:21;16.50;;;4.90;;
52494;SDS011;38405;53.212;5.660;2023-08-20T05:01:47;19.98;;;4.70;;
52494;SDS011;38405;53.212;5.660;2023-08-20T05:04:13;12.82;;;4.95;;
52494;SDS011;38405;53.212;5.660;2023-08-20T05:06:38;14.75;;;4.97;;
52494;SDS011;38405;53.212;5.660;2023-08-20T05:09:04;14.07;;;5.13;;
52494;SDS011;38405;53.212;5.660;2023-08-20T05:11:30;17.42;;;5.55;;
52494;SDS011;38405;53.212;5.660;2023-08-20T05:13:57;18.58;;;7.53;;
52494;SDS011;38405;53.212;5.660;2023-08-20T05:16:23;15.32;;;5.57;;
52494;SDS011;38405;53.212;5.660;2023-08-20T05:18:49;11.43;;;5.18;;
52494;SDS011;38405;53.212;5.660;2023-08-20T05:21:15;9.90;;;4.93;;
52494;SDS011;38405;53.212;5.660;2023-08-20T05:23:43;10.18;;;4.85;;
52494;SDS011;38405;53.212;5.660;2023-08-20T05:26:09;13.50;;;4.82;;
52494;SDS011;38405;53.212;5.660;2023-08-20T05:28:35;13.88;;;5.03;;
52494;SDS011;38405;53.212;5.660;2023-08-20T05:31:00;17.58;;;5.57;;
52494;SDS011;38405;53.212;5.660;2023-08-20T05:33:26;10.80;;;5.13;;
52494;SDS011;38405;53.212;5.660;2023-08-20T05:35:52;17.30;;;5.40;;
52494;SDS011;38405;53.212;5.660;2023-08-20T05:38:17;15.60;;;4.95;;
52494;SDS011;38405;53.212;5.660;2023-08-20T05:40:43;14.45;;;5.38;;
52494;SDS011;38405;53.212;5.660;2023-08-20T05:43:09;16.05;;;5.55;;
52494;SDS011;38405;53.212;5.660;2023-08-20T05:45:35;11.50;;;4.63;;
52494;SDS011;38405;53.212;5.660;2023-08-20T05:48:00;14.02;;;5.05;;
52494;SDS011;38405;53.212;5.660;2023-08-20T05:50:26;14.43;;;5.20;;
52494;SDS011;38405;53.212;5.660;2023-08-20T05:52:52;13.60;;;5.20;;
52494;SDS011;38405;53.212;5.660;2023-08-20T05:55:18;11.57;;;5.47;;
52494;SDS011;38405;53.212;5.660;2023-08-20T05:57:44;10.82;;;4.85;;
52494;SDS011;38405;53.212;5.660;2023-08-20T06:00:10;11.93;;;4.75;;
52494;SDS011;38405;53.212;5.660;2023-08-20T06:02:36;10.88;;;4.82;;
52494;SDS011;38405;53.212;5.660;2023-08-20T06:05:03;12.18;;;5.28;;
52494;SDS011;38405;53.212;5.660;2023-08-20T06:07:33;14.93;;;5.00;;
52494;SDS011;38405;53.212;5.660;2023-08-20T06:09:59;11.88;;;4.78;;
52494;SDS011;38405;53.212;5.660;2023-08-20T06:12:24;14.43;;;4.47;;
52494;SDS011;38405;53.212;5.660;2023-08-20T06:14:50;16.25;;;5.03;;
52494;SDS011;38405;53.212;5.660;2023-08-20T06:17:16;16.48;;;4.72;;
52494;SDS011;38405;53.212;5.660;2023-08-20T06:19:41;15.80;;;4.28;;
52494;SDS011;38405;53.212;5.660;2023-08-20T06:22:07;22.15;;;4.75;;
52494;SDS011;38405;53.212;5.660;2023-08-20T06:24:33;21.27;;;5.30;;
52494;SDS011;38405;53.212;5.660;2023-08-20T06:26:59;14.93;;;4.47;;
52494;SDS011;38405;53.212;5.660;2023-08-20T06:29:24;17.35;;;4.90;;
52494;SDS011;38405;53.212;5.660;2023-08-20T06:31:50;18.90;;;5.03;;
52494;SDS011;38405;53.212;5.660;2023-08-20T06:34:16;23.35;;;5.03;;
52494;SDS011;38405;53.212;5.660;2023-08-20T06:36:42;17.08;;;4.90;;
52494;SDS011;38405;53.212;5.660;2023-08-20T06:39:08;16.52;;;4.38;;
52494;SDS011;38405;53.212;5.660;2023-08-20T06:41:34;17.33;;;4.47;;
52494;SDS011;38405;53.212;5.660;2023-08-20T06:44:00;17.67;;;4.32;;
52494;SDS011;38405;53.212;5.660;2023-08-20T06:46:26;16.63;;;4.35;;
52494;SDS011;38405;53.212;5.660;2023-08-20T06:48:52;17.20;;;5.15;;
52494;SDS011;38405;53.212;5.660;2023-08-20T06:51:21;19.95;;;4.70;;
52494;SDS011;38405;53.212;5.660;2023-08-20T06:53:47;12.82;;;3.85;;
52494;SDS011;38405;53.212;5.660;2023-08-20T06:56:13;15.35;;;4.25;;
52494;SDS011;38405;53.212;5.660;2023-08-20T06:58:39;16.65;;;4.22;;
52494;SDS011;38405;53.212;5.660;2023-08-20T07:01:06;12.27;;;3.60;;
52494;SDS011;38405;53.212;5.660;2023-08-20T07:03:42;20.50;;;4.75;;
52494;SDS011;38405;53.212;5.660;2023-08-20T07:06:09;11.90;;;3.08;;
52494;SDS011;38405;53.212;5.660;2023-08-20T07:08:36;16.42;;;3.75;;
52494;SDS011;38405;53.212;5.660;2023-08-20T07:11:05;14.85;;;3.15;;
52494;SDS011;38405;53.212;5.660;2023-08-20T07:13:32;13.27;;;3.30;;
52494;SDS011;38405;53.212;5.660;2023-08-20T07:15:57;16.20;;;3.47;;
52494;SDS011;38405;53.212;5.660;2023-08-20T07:18:23;14.27;;;3.20;;
52494;SDS011;38405;53.212;5.660;2023-08-20T07:20:49;12.82;;;3.10;;
52494;SDS011;38405;53.212;5.660;2023-08-20T07:23:16;11.38;;;2.58;;
52494;SDS011;38405;53.212;5.660;2023-08-20T07:25:41;15.90;;;3.42;;
52494;SDS011;38405;53.212;5.660;2023-08-20T07:28:08;8.55;;;2.72;;
52494;SDS011;38405;53.212;5.660;2023-08-20T07:30:36;15.27;;;2.63;;
52494;SDS011;38405;53.212;5.660;2023-08-20T07:33:02;12.10;;;2.83;;
52494;SDS011;38405;53.212;5.660;2023-08-20T07:35:28;9.38;;;2.67;;
52494;SDS011;38405;53.212;5.660;2023-08-20T07:37:54;15.60;;;3.38;;
52494;SDS011;38405;53.212;5.660;2023-08-20T07:40:20;13.18;;;3.20;;
52494;SDS011;38405;53.212;5.660;2023-08-20T07:42:45;16.00;;;3.17;;
52494;SDS011;38405;53.212;5.660;2023-08-20T07:45:11;11.93;;;3.08;;
52494;SDS011;38405;53.212;5.660;2023-08-20T07:47:38;11.02;;;2.40;;
52494;SDS011;38405;53.212;5.660;2023-08-20T07:50:04;12.48;;;2.60;;
52494;SDS011;38405;53.212;5.660;2023-08-20T07:52:31;10.43;;;2.70;;
52494;SDS011;38405;53.212;5.660;2023-08-20T07:54:57;11.25;;;2.75;;
52494;SDS011;38405;53.212;5.660;2023-08-20T07:57:23;11.43;;;2.83;;
52494;SDS011;38405;53.212;5.660;2023-08-20T07:59:49;11.30;;;2.78;;
52494;SDS011;38405;53.212;5.660;2023-08-20T08:02:15;11.75;;;2.45;;
52494;SDS011;38405;53.212;5.660;2023-08-20T08:04:41;10.77;;;2.78;;
52494;SDS011;38405;53.212;5.660;2023-08-20T08:07:07;11.57;;;2.78;;
52494;SDS011;38405;53.212;5.660;2023-08-20T08:09:33;12.50;;;3.33;;
52494;SDS011;38405;53.212;5.660;2023-08-20T08:11:59;10.75;;;2.85;;
52494;SDS011;38405;53.212;5.660;2023-08-20T08:14:25;13.10;;;2.35;;
52494;SDS011;38405;53.212;5.660;2023-08-20T08:16:51;8.73;;;2.20;;
52494;SDS011;38405;53.212;5.660;2023-08-20T08:19:17;9.90;;;2.53;;
52494;SDS011;38405;53.212;5.660;2023-08-20T08:21:44;8.65;;;2.22;;
52494;SDS011;38405;53.212;5.660;2023-08-20T08:24:11;12.38;;;2.60;;
52494;SDS011;38405;53.212;5.660;2023-08-20T08:26:37;12.65;;;3.10;;
52494;SDS011;38405;53.212;5.660;2023-08-20T08:29:03;8.75;;;2.70;;
52494;SDS011;38405;53.212;5.660;2023-08-20T08:31:29;11.40;;;2.97;;
52494;SDS011;38405;53.212;5.660;2023-08-20T08:33:55;8.70;;;2.42;;
52494;SDS011;38405;53.212;5.660;2023-08-20T08:36:20;11.30;;;2.88;;
52494;SDS011;38405;53.212;5.660;2023-08-20T08:38:46;8.13;;;2.75;;
52494;SDS011;38405;53.212;5.660;2023-08-20T08:41:13;10.45;;;2.60;;
52494;SDS011;38405;53.212;5.660;2023-08-20T08:43:39;8.73;;;2.25;;
52494;SDS011;38405;53.212;5.660;2023-08-20T08:46:14;12.77;;;2.70;;
52494;SDS011;38405;53.212;5.660;2023-08-20T08:48:41;8.73;;;2.40;;
52494;SDS011;38405;53.212;5.660;2023-08-20T08:51:08;11.40;;;2.88;;
52494;SDS011;38405;53.212;5.660;2023-08-20T08:53:34;8.70;;;2.10;;
52494;SDS011;38405;53.212;5.660;2023-08-20T08:56:01;9.95;;;2.47;;
52494;SDS011;38405;53.212;5.660;2023-08-20T08:58:28;8.25;;;2.35;;
52494;SDS011;38405;53.212;5.660;2023-08-20T09:00:54;11.82;;;2.70;;
52494;SDS011;38405;53.212;5.660;2023-08-20T09:03:20;7.93;;;2.33;;
52494;SDS011;38405;53.212;5.660;2023-08-20T09:05:49;11.07;;;2.42;;
52494;SDS011;38405;53.212;5.660;2023-08-20T09:08:22;7.93;;;2.13;;
52494;SDS011;38405;53.212;5.660;2023-08-20T09:10:57;10.90;;;2.75;;
52494;SDS011;38405;53.212;5.660;2023-08-20T09:13:24;9.88;;;2.45;;
52494;SDS011;38405;53.212;5.660;2023-08-20T09:15:54;8.48;;;2.38;;
52494;SDS011;38405;53.212;5.660;2023-08-20T09:18:20;12.90;;;2.40;;
52494;SDS011;38405;53.212;5.660;2023-08-20T09:20:47;8.70;;;1.92;;
52494;SDS011;38405;53.212;5.660;2023-08-20T09:23:16;8.75;;;2.30;;
52494;SDS011;38405;53.212;5.660;2023-08-20T09:25:43;9.18;;;2.40;;
52494;SDS011;38405;53.212;5.660;2023-08-20T09:28:08;6.40;;;2.08;;
52494;SDS011;38405;53.212;5.660;2023-08-20T09:30:34;11.52;;;2.30;;
52494;SDS011;38405;53.212;5.660;2023-08-20T09:33:04;9.05;;;2.30;;
52494;SDS011;38405;53.212;5.660;2023-08-20T09:35:30;7.78;;;2.40;;
52494;SDS011;38405;53.212;5.660;2023-08-20T09:37:59;9.73;;;2.17;;
52494;SDS011;38405;53.212;5.660;2023-08-20T09:40:26;9.77;;;2.45;;
52494;SDS011;38405;53.212;5.660;2023-08-20T09:42:52;9.18;;;2.47;;
52494;SDS011;38405;53.212;5.660;2023-08-20T09:45:20;10.38;;;2.78;;
52494;SDS011;38405;53.212;5.660;2023-08-20T09:47:48;9.10;;;2.20;;
52494;SDS011;38405;53.212;5.660;2023-08-20T09:50:16;7.38;;;2.05;;
52494;SDS011;38405;53.212;5.660;2023-08-20T09:53:30;8.70;;;2.20;;
52494;SDS011;38405;53.212;5.660;2023-08-20T09:55:43;7.75;;;2.10;;
52494;SDS011;38405;53.212;5.660;2023-08-20T09:58:10;6.55;;;1.80;;
52494;SDS011;38405;53.212;5.660;2023-08-20T10:00:36;7.45;;;2.08;;
52494;SDS011;38405;53.212;5.660;2023-08-20T10:03:03;7.38;;;1.92;;
52494;SDS011;38405;53.212;5.660;2023-08-20T10:05:29;6.63;;;2.10;;
52494;SDS011;38405;53.212;5.660;2023-08-20T10:07:56;9.25;;;2.08;;
52494;SDS011;38405;53.212;5.660;2023-08-20T10:10:23;8.05;;;2.50;;
52494;SDS011;38405;53.212;5.660;2023-08-20T10:12:50;8.95;;;2.17;;
52494;SDS011;38405;53.212;5.660;2023-08-20T10:15:17;8.02;;;2.30;;
52494;SDS011;38405;53.212;5.660;2023-08-20T10:17:44;8.18;;;2.50;;
52494;SDS011;38405;53.212;5.660;2023-08-20T10:20:12;8.07;;;2.20;;
52494;SDS011;38405;53.212;5.660;2023-08-20T10:22:41;8.38;;;2.05;;
52494;SDS011;38405;53.212;5.660;2023-08-20T10:25:08;4.65;;;1.70;;
52494;SDS011;38405;53.212;5.660;2023-08-20T10:27:36;7.10;;;1.92;;
52494;SDS011;38405;53.212;5.660;2023-08-20T10:30:10;6.53;;;1.77;;
52494;SDS011;38405;53.212;5.660;2023-08-20T10:38:05;6.75;;;1.80;;
52494;SDS011;38405;53.212;5.660;2023-08-20T10:43:33;5.55;;;1.73;;
52494;SDS011;38405;53.212;5.660;2023-08-20T10:46:03;10.00;;;1.90;;
52494;SDS011;38405;53.212;5.660;2023-08-20T10:48:43;8.85;;;2.50;;
52494;SDS011;38405;53.212;5.660;2023-08-20T10:51:24;8.63;;;1.92;;
52494;SDS011;38405;53.212;5.660;2023-08-20T10:56:53;7.55;;;1.98;;
52494;SDS011;38405;53.212;5.660;2023-08-20T10:59:25;9.13;;;2.42;;
52494;SDS011;38405;53.212;5.660;2023-08-20T11:01:53;6.70;;;1.90;;
52494;SDS011;38405;53.212;5.660;2023-08-20T11:04:21;5.85;;;1.63;;
52494;SDS011;38405;53.212;5.660;2023-08-20T11:06:55;6.90;;;1.80;;
52494;SDS011;38405;53.212;5.660;2023-08-20T11:09:25;4.95;;;1.95;;
52494;SDS011;38405;53.212;5.660;2023-08-20T11:11:52;6.13;;;2.00;;
52494;SDS011;38405;53.212;5.660;2023-08-20T11:14:18;5.85;;;2.05;;
52494;SDS011;38405;53.212;5.660;2023-08-20T11:16:45;7.38;;;2.00;;
52494;SDS011;38405;53.212;5.660;2023-08-20T11:19:12;5.85;;;1.73;;
52494;SDS011;38405;53.212;5.660;2023-08-20T11:21:39;10.60;;;2.05;;
52494;SDS011;38405;53.212;5.660;2023-08-20T11:24:09;6.38;;;1.67;;
52494;SDS011;38405;53.212;5.660;2023-08-20T11:26:36;8.60;;;1.85;;
52494;SDS011;38405;53.212;5.660;2023-08-20T11:29:11;9.55;;;2.08;;
52494;SDS011;38405;53.212;5.660;2023-08-20T11:31:37;5.47;;;1.90;;
52494;SDS011;38405;53.212;5.660;2023-08-20T11:34:04;7.15;;;2.03;;
52494;SDS011;38405;53.212;5.660;2023-08-20T11:36:31;9.18;;;2.47;;
52494;SDS011;38405;53.212;5.660;2023-08-20T11:38:57;7.63;;;1.77;;
52494;SDS011;38405;53.212;5.660;2023-08-20T11:41:23;7.55;;;1.65;;
52494;SDS011;38405;53.212;5.660;2023-08-20T11:43:50;5.72;;;1.73;;
52494;SDS011;38405;53.212;5.660;2023-08-20T11:46:21;7.80;;;1.95;;
52494;SDS011;38405;53.212;5.660;2023-08-20T11:51:29;7.65;;;1.77;;
52494;SDS011;38405;53.212;5.660;2023-08-20T11:53:56;7.35;;;1.92;;
52494;SDS011;38405;53.212;5.660;2023-08-20T11:56:22;9.48;;;2.10;;
52494;SDS011;38405;53.212;5.660;2023-08-20T11:58:51;6.75;;;1.85;;
52494;SDS011;38405;53.212;5.660;2023-08-20T12:01:20;7.75;;;2.08;;
52494;SDS011;38405;53.212;5.660;2023-08-20T12:03:46;8.05;;;2.00;;
52494;SDS011;38405;53.212;5.660;2023-08-20T12:06:21;8.38;;;2.42;;
52494;SDS011;38405;53.212;5.660;2023-08-20T12:08:49;7.20;;;2.00;;
52494;SDS011;38405;53.212;5.660;2023-08-20T12:11:14;6.53;;;2.08;;
52494;SDS011;38405;53.212;5.660;2023-08-20T12:13:40;9.05;;;2.15;;
52494;SDS011;38405;53.212;5.660;2023-08-20T12:16:06;5.47;;;2.38;;
52494;SDS011;38405;53.212;5.660;2023-08-20T12:18:32;8.32;;;2.17;;
52494;SDS011;38405;53.212;5.660;2023-08-20T12:20:58;5.90;;;2.00;;
52494;SDS011;38405;53.212;5.660;2023-08-20T12:23:23;7.57;;;1.98;;
52494;SDS011;38405;53.212;5.660;2023-08-20T12:25:50;8.55;;;1.77;;
52494;SDS011;38405;53.212;5.660;2023-08-20T12:28:16;6.53;;;1.75;;
52494;SDS011;38405;53.212;5.660;2023-08-20T12:30:43;5.80;;;1.90;;
52494;SDS011;38405;53.212;5.660;2023-08-20T12:33:09;5.63;;;1.83;;
52494;SDS011;38405;53.212;5.660;2023-08-20T12:35:36;6.45;;;1.80;;
52494;SDS011;38405;53.212;5.660;2023-08-20T12:38:02;5.20;;;1.52;;
52494;SDS011;38405;53.212;5.660;2023-08-20T12:40:28;9.23;;;2.08;;
52494;SDS011;38405;53.212;5.660;2023-08-20T12:42:54;4.70;;;1.73;;
52494;SDS011;38405;53.212;5.660;2023-08-20T12:45:19;10.55;;;2.10;;
52494;SDS011;38405;53.212;5.660;2023-08-20T12:47:45;5.60;;;1.90;;
52494;SDS011;38405;53.212;5.660;2023-08-20T12:50:11;5.82;;;1.90;;
52494;SDS011;38405;53.212;5.660;2023-08-20T12:52:39;6.03;;;1.83;;
52494;SDS011;38405;53.212;5.660;2023-08-20T12:55:05;8.45;;;2.20;;
52494;SDS011;38405;53.212;5.660;2023-08-20T12:57:33;9.43;;;2.40;;
52494;SDS011;38405;53.212;5.660;2023-08-20T12:59:59;8.80;;;1.70;;
52494;SDS011;38405;53.212;5.660;2023-08-20T13:02:25;7.20;;;2.25;;
52494;SDS011;38405;53.212;5.660;2023-08-20T13:04:51;13.10;;;2.13;;
52494;SDS011;38405;53.212;5.660;2023-08-20T13:07:17;4.63;;;1.45;;
52494;SDS011;38405;53.212;5.660;2023-08-20T13:09:43;7.20;;;1.98;;
52494;SDS011;38405;53.212;5.660;2023-08-20T13:12:09;6.30;;;1.90;;
52494;SDS011;38405;53.212;5.660;2023-08-20T13:14:38;9.40;;;1.92;;
52494;SDS011;38405;53.212;5.660;2023-08-20T13:17:07;9.32;;;2.55;;
52494;SDS011;38405;53.212;5.660;2023-08-20T13:19:33;7.55;;;1.92;;
52494;SDS011;38405;53.212;5.660;2023-08-20T13:21:59;7.03;;;1.77;;
52494;SDS011;38405;53.212;5.660;2023-08-20T13:24:24;7.95;;;2.22;;
52494;SDS011;38405;53.212;5.660;2023-08-20T13:26:50;9.70;;;2.30;;
52494;SDS011;38405;53.212;5.660;2023-08-20T13:29:16;8.85;;;2.25;;
52494;SDS011;38405;53.212;5.660;2023-08-20T13:31:42;9.98;;;2.47;;
52494;SDS011;38405;53.212;5.660;2023-08-20T13:34:08;11.73;;;2.45;;
52494;SDS011;38405;53.212;5.660;2023-08-20T13:36:34;10.38;;;2.22;;
52494;SDS011;38405;53.212;5.660;2023-08-20T13:39:00;9.00;;;2.40;;
52494;SDS011;38405;53.212;5.660;2023-08-20T13:41:25;10.32;;;2.25;;
52494;SDS011;38405;53.212;5.660;2023-08-20T13:43:52;10.45;;;2.15;;
52494;SDS011;38405;53.212;5.660;2023-08-20T13:46:18;10.05;;;2.17;;
52494;SDS011;38405;53.212;5.660;2023-08-20T13:48:44;8.25;;;1.90;;
52494;SDS011;38405;53.212;5.660;2023-08-20T13:51:09;9.98;;;2.08;;
52494;SDS011;38405;53.212;5.660;2023-08-20T13:53:35;11.93;;;2.75;;
52494;SDS011;38405;53.212;5.660;2023-08-20T13:56:01;8.73;;;1.80;;
52494;SDS011;38405;53.212;5.660;2023-08-20T13:58:27;8.68;;;2.25;;
52494;SDS011;38405;53.212;5.660;2023-08-20T14:00:53;7.80;;;2.30;;
52494;SDS011;38405;53.212;5.660;2023-08-20T14:03:18;6.03;;;2.05;;
52494;SDS011;38405;53.212;5.660;2023-08-20T14:05:44;6.18;;;1.50;;
52494;SDS011;38405;53.212;5.660;2023-08-20T14:08:10;9.50;;;1.85;;
52494;SDS011;38405;53.212;5.660;2023-08-20T14:10:36;7.03;;;2.15;;
52494;SDS011;38405;53.212;5.660;2023-08-20T14:13:02;9.27;;;2.15;;
52494;SDS011;38405;53.212;5.660;2023-08-20T14:15:28;4.47;;;1.73;;
52494;SDS011;38405;53.212;5.660;2023-08-20T14:17:54;6.82;;;1.83;;
52494;SDS011;38405;53.212;5.660;2023-08-20T14:20:19;12.43;;;2.60;;
52494;SDS011;38405;53.212;5.660;2023-08-20T14:22:45;9.05;;;1.70;;
52494;SDS011;38405;53.212;5.660;2023-08-20T14:25:11;9.63;;;2.05;;
52494;SDS011;38405;53.212;5.660;2023-08-20T14:27:37;8.98;;;2.13;;
52494;SDS011;38405;53.212;5.660;2023-08-20T14:30:02;11.85;;;2.30;;
52494;SDS011;38405;53.212;5.660;2023-08-20T14:32:29;10.80;;;2.47;;
52494;SDS011;38405;53.212;5.660;2023-08-20T14:34:55;8.73;;;2.08;;
52494;SDS011;38405;53.212;5.660;2023-08-20T14:37:21;6.82;;;2.17;;
52494;SDS011;38405;53.212;5.660;2023-08-20T14:39:48;6.35;;;1.73;;
52494;SDS011;38405;53.212;5.660;2023-08-20T14:42:14;5.38;;;1.88;;
52494;SDS011;38405;53.212;5.660;2023-08-20T14:44:40;6.05;;;1.52;;
52494;SDS011;38405;53.212;5.660;2023-08-20T14:47:06;7.50;;;1.70;;
52494;SDS011;38405;53.212;5.660;2023-08-20T14:49:31;5.95;;;1.42;;
52494;SDS011;38405;53.212;5.660;2023-08-20T14:51:57;6.53;;;1.75;;
52494;SDS011;38405;53.212;5.660;2023-08-20T14:54:24;6.15;;;1.40;;
52494;SDS011;38405;53.212;5.660;2023-08-20T14:56:50;7.43;;;1.95;;
52494;SDS011;38405;53.212;5.660;2023-08-20T14:59:16;11.68;;;1.80;;
52494;SDS011;38405;53.212;5.660;2023-08-20T15:01:41;8.02;;;1.65;;